Anthony, Idaho
Current Conditions -  °F | °C
As of 10:55 AM on Friday 24 Oct 2014 (Local Time) from KWYS Reporting Station
Overcast Overcast  
Wind Chill: 42°   Ceiling: 7000
Heat Index: 45°   Visibility: 10mi
Dew Point: 36°   Wind: 5mph
Humidity: 71%   Direction: 190°S
Pressure: 30.2"   Gusts: NA
Location:  44.2887°N, 111.507°W
Report Text: KWYS 241655Z AUTO 19004KT 10SM FEW026 OVC070 07/02 A3020 RMK AO2
Loading
Personal Weather Stations






























Interactive Weather Map
Tropical Storm Tracking
New forecast layout! Learn more

10-Day Weather Forecast

Advertisements
Track Severe Weather on mobile